x

Buoy I01 - Eastern Maine Shelf (44034) Wave Buoy

10:04 - Mon 29th Aug 2016 All times are EDT. -4 hours from GMT.

  • Sig Wave height 4.3ft
  • Peak Period 11s
  • Wind
    4mph
  • Sea Temp 57°f
  • Aire Temp 61°f
  • Sea Pressure 1018.4mb
  • Buoy I01 - Eastern Maine Shelf
  • Buoy I01 - Eastern Maine Shelf

More Historic Weather Station data

Upgrade to MSW Pro to gain access to the past 30 days of data for over 8000 Wavebouys and Weather Stations around the globe.

Join Pro

Comparision Forecast

View Surf forecast
   
lun 08/29 10:04 4.5ft 11s 4
mph
1018.4mb 57f 61f
9:04 2.5ft 5s 9
mph
1017.7mb 57f 62f
7:04 3ft 5s 9 11 mph 1016mb 58f 63f
6:04 3.5ft 5s 11 13 mph 1014.7mb 58f 64f
5:04 4.5ft 6s 20 22 mph 1014.7mb 58f 67f
4:04 4ft 6s 16 20 mph 1014.3mb 58f 66f
3:04 4ft 6s 18 22 mph 1013.6mb 58f 67f
2:04 4ft 6s 18 20 mph 1013.3mb 58f 67f
1:04 3ft 6s 11
mph
1013.3mb 58f 62f
12:04 3.5ft 6s 11 13 mph 1013.2mb 58f 61f
11:04 4ft 6s 13 16 mph 1013.5mb 58f 60f
10:04 3.5ft 5s 11 13 mph 1013.8mb 58f 60f
9:04 3.5ft 5s 16 18 mph 1013.9mb 58f 61f
8:04 3.5ft 5s 16 18 mph 1014.9mb 58f 61f
7:04 3.5ft 5s 11 16 mph 1015.3mb 58f 61f
6:04 3.5ft 5s 11 13 mph 1015.8mb 58f 61f
5:04 3ft 5s 16 18 mph 1016.4mb 58f 62f
4:04 2.5ft 4s 13 16 mph 1017.3mb 58f 61f
3:04 2.5ft 4s 16 18 mph 1018.1mb 58f 61f
2:04 1.6ft 4s 16 18 mph 1018.6mb 58f 61f
1:04 1.6ft 4s 11 13 mph 1019.2mb 55f 60f
12:04 1.3ft 4s 9 11 mph 1020mb 57f 60f
dom 08/28 11:04 1ft 3s 11
mph
1020.6mb 57f 60f
10:04 1ft 3s 9 11 mph 1021.1mb 57f 60f
9:04 1ft 3s 9 11 mph 1022.1mb 57f 60f
8:04 1ft 3s 9
mph
1022.1mb 57f 60f
7:04 0.7ft  -  9 11 mph 1022.2mb 57f 60f
6:04 1.3ft 8s 11
mph
1022.6mb 57f 61f
4:04 1.6ft 8s 7
mph
1024.1mb 59f 61f
3:04 1ft 8s 4 7 mph 1024.6mb 59f 62f
2:04 1ft 8s 4
mph
1025.2mb 60f 63f
1:04 1.3ft 8s 4
mph
1025.7mb 59f 63f
12:04 1.3ft 8s 4
mph
1026.2mb 57f 61f
11:04 1.3ft 8s 4
mph
1026.5mb 58f 60f
10:04 1.3ft 8s 4
mph
1026.4mb 58f 59f
9:04 1ft 8s 4
mph
1026.2mb 57f 59f
8:04 1ft 11s 4 7 mph 1026.4mb 57f 59f
7:04 1.3ft 11s 4
mph
1026.3mb 57f 59f
6:04 1.3ft 11s 4 7 mph 1026.2mb 57f 58f
5:04 1ft 8s 4
mph
1025.5mb 57f 59f
4:04 1ft 8s 2
mph
1025.1mb 57f 59f
3:04 1.3ft 8s 4 7 mph 1025mb 58f 59f
2:04 1ft 11s 4
mph
1025.5mb 57f 59f
1:04 1.3ft 11s 2 4 mph 1025.1mb 58f 60f
12:04 1.3ft 11s 4
mph
1024.8mb 58f 60f
sáb 08/27 11:04 1.3ft 11s 4 7 mph 1024.7mb 58f 62f
10:04 1.3ft 8s 2
mph
1024.2mb 57f 63f
9:04 1.3ft 8s 2
mph
1023.7mb 57f 64f
8:04 1.3ft 8s  -  2 mph 1023mb 60f 64f
7:04 1.3ft 8s 4
mph
1022.4mb 60f 64f
6:04 1.3ft 11s 2
mph
1021.7mb 60f 71f
5:04 1.3ft 11s 4
mph
1021.7mb 60f 67f
4:04 1.6ft 8s 7 9 mph 1021.6mb 60f 68f
3:04 1.3ft 6s 4 7 mph 1021.3mb 60f 71f
2:04 1.3ft 11s 4
mph
1021.3mb 59f 68f
1:04 1.3ft 5s 2 4 mph 1021.1mb 58f 66f
12:04 1.3ft 8s 4
mph
1021.1mb 57f 64f
11:04 1.6ft 8s 2 4 mph 1021.1mb 57f 62f
10:04 1.3ft 5s 11 13 mph 1021mb 57f 63f
9:04 1.6ft 5s 4 7 mph 1020.4mb 56f 60f
8:04 1.6ft 5s 7
mph
1019.7mb 57f 60f
7:04 2ft 5s 7
mph
1019mb 57f 62f
6:04 1.6ft 5s 9 11 mph 1018.1mb 57f 62f
5:04 2ft 8s 9 11 mph 1017.6mb 58f 63f
4:04 2ft 5s 7
mph
1017mb 58f 62f
3:04 2ft 5s 7 9 mph 1016.6mb 58f 62f
2:04 2ft 8s 7
mph
1016.4mb 58f 63f
1:04 2ft 8s 4 7 mph 1016mb 59f 63f
12:04 2ft 8s 7 9 mph 1015.4mb 59f 62f
vie 08/26 11:04 2ft 5s 7
mph
1015mb 59f 61f
10:04 2.5ft 5s 9 11 mph 1014.3mb 56f 61f
9:04 2.5ft 5s 4 7 mph 1013.9mb 56f 60f
8:04 2.5ft 5s  -  mph - 55f -
7:04 2.5ft 5s 9 11 mph 1012.2mb 56f 60f
6:04 2.5ft 5s 11 13 mph 1011.9mb 57f 61f
5:04 3ft 5s 11 13 mph 1012.1mb 57f 61f
4:04 3ft 5s 11 13 mph 1012.2mb 58f 60f
3:04 2.5ft 8s 9
mph
1012mb 57f 60f
2:04 3ft 5s 11 13 mph 1012.5mb 57f 60f
1:04 3.5ft 6s 9 11 mph 1012.9mb 58f 60f
12:04 3.5ft 5s 11 13 mph 1012.8mb 58f 61f
11:04 3.5ft 6s 11 13 mph 1013.4mb 58f 60f
10:04 3ft 6s 7
mph
1013.7mb 57f 61f
9:04 3.5ft 6s 4 7 mph 1013.9mb 57f 59f
8:04 3.5ft 6s 7
mph
1013.6mb 57f 60f
7:04 4ft 6s 7 9 mph 1013.5mb 57f 60f
6:04 4.5ft 6s 7 9 mph 1013.5mb 57f 60f
5:04 4.5ft 6s 4 7 mph 1013.2mb 57f 60f
4:04 4ft 6s 4 7 mph 1013mb 57f 60f